createdAt,value
2023-05-10T00:01:52.984Z,22.90
2023-05-10T00:04:20.120Z,22.91
2023-05-10T00:06:47.298Z,22.89
2023-05-10T00:09:14.614Z,22.91
2023-05-10T00:11:41.772Z,22.88
2023-05-10T00:14:10.353Z,22.88
2023-05-10T00:16:37.482Z,22.88
2023-05-10T00:19:04.720Z,22.90
2023-05-10T00:21:31.880Z,22.88
2023-05-10T00:23:58.926Z,22.86
2023-05-10T00:26:26.230Z,22.85
2023-05-10T00:28:55.971Z,22.88
2023-05-10T00:31:24.491Z,22.90
2023-05-10T00:33:51.604Z,22.89
2023-05-10T00:36:18.678Z,22.88
2023-05-10T00:38:45.814Z,22.91
2023-05-10T00:41:12.935Z,22.91
2023-05-10T00:43:41.210Z,22.91
2023-05-10T00:46:08.712Z,22.88
2023-05-10T00:48:37.329Z,22.90
2023-05-10T00:51:04.597Z,22.94
2023-05-10T00:53:32.595Z,22.95
2023-05-10T00:56:00.152Z,23.01
2023-05-10T00:58:27.620Z,23.39
2023-05-10T01:00:55.806Z,24.36
2023-05-10T01:03:23.488Z,24.56
2023-05-10T01:05:52.153Z,24.94
2023-05-10T01:08:19.418Z,24.46
2023-05-10T01:10:46.649Z,24.31
2023-05-10T01:13:14.703Z,24.48
2023-05-10T01:15:42.032Z,23.89
2023-05-10T01:18:09.789Z,23.38
2023-05-10T01:20:41.235Z,23.27
2023-05-10T01:23:29.608Z,23.26
2023-05-10T01:26:15.593Z,23.21
2023-05-10T01:29:03.549Z,23.19
2023-05-10T01:31:41.701Z,23.14
2023-05-10T01:34:14.039Z,23.13
2023-05-10T01:36:43.030Z,23.13
2023-05-10T01:39:12.952Z,23.09
2023-05-10T01:41:43.970Z,23.10
2023-05-10T01:44:14.325Z,23.10
2023-05-10T01:46:41.853Z,23.13
2023-05-10T01:49:12.226Z,22.88
2023-05-10T01:51:42.593Z,22.76
2023-05-10T01:54:11.243Z,22.80
2023-05-10T01:56:39.271Z,22.79
2023-05-10T01:59:09.245Z,22.86
2023-05-10T02:01:37.924Z,22.86
2023-05-10T02:04:05.966Z,22.89
2023-05-10T02:06:35.236Z,22.91
2023-05-10T02:09:02.864Z,22.95
2023-05-10T02:11:32.054Z,22.99
2023-05-10T02:14:00.043Z,22.99
2023-05-10T02:16:29.470Z,22.97
2023-05-10T02:18:57.952Z,23.01
2023-05-10T02:21:25.560Z,23.04
2023-05-10T02:23:54.859Z,23.04
2023-05-10T02:26:23.358Z,22.91
2023-05-10T02:28:50.712Z,22.90
2023-05-10T02:31:18.195Z,22.91
2023-05-10T02:33:46.905Z,22.77
2023-05-10T02:36:14.935Z,22.71
2023-05-10T02:38:42.246Z,22.72
2023-05-10T02:41:11.134Z,22.76
2023-05-10T02:43:38.800Z,22.73
2023-05-10T02:46:06.705Z,22.66
2023-05-10T02:48:36.202Z,22.58
2023-05-10T02:51:06.215Z,22.73
2023-05-10T02:53:35.641Z,22.77
2023-05-10T02:56:05.368Z,22.57
2023-05-10T02:58:33.945Z,22.80
2023-05-10T03:01:01.496Z,22.83
2023-05-10T03:03:28.674Z,22.84
2023-05-10T03:05:56.000Z,22.76
2023-05-10T03:08:23.637Z,22.67
2023-05-10T03:11:02.990Z,22.63
2023-05-10T03:13:33.199Z,22.73
2023-05-10T03:16:06.088Z,22.86
2023-05-10T03:18:37.061Z,22.89
2023-05-10T03:21:08.725Z,22.91
2023-05-10T03:23:36.777Z,22.92
2023-05-10T03:26:05.972Z,22.97
2023-05-10T03:28:34.483Z,23.00
2023-05-10T03:31:03.872Z,22.99
2023-05-10T03:33:32.258Z,22.96
2023-05-10T03:36:00.487Z,23.09
2023-05-10T03:38:30.360Z,23.07
2023-05-10T03:40:58.096Z,23.10
2023-05-10T03:43:25.755Z,23.09
2023-05-10T03:45:52.979Z,23.04
2023-05-10T03:48:22.005Z,23.08
2023-05-10T03:50:49.397Z,23.13
2023-05-10T03:53:16.640Z,23.09
2023-05-10T03:55:44.270Z,23.12
2023-05-10T03:58:12.342Z,23.07
2023-05-10T04:00:39.526Z,23.17
2023-05-10T04:03:07.009Z,23.16
2023-05-10T04:05:35.720Z,23.15
2023-05-10T04:08:03.445Z,23.24
2023-05-10T04:10:31.362Z,23.17
2023-05-10T04:12:58.464Z,23.17
2023-05-10T04:15:26.148Z,23.09
2023-05-10T04:17:53.257Z,23.13
2023-05-10T04:20:20.555Z,23.17
2023-05-10T04:22:49.239Z,23.19
2023-05-10T04:25:16.482Z,23.18
2023-05-10T04:27:44.093Z,23.18
2023-05-10T04:30:11.672Z,23.32
2023-05-10T04:32:38.914Z,23.35
2023-05-10T04:35:06.466Z,23.25
2023-05-10T04:37:33.683Z,23.20
2023-05-10T04:40:02.565Z,23.33
2023-05-10T04:42:29.740Z,23.11
2023-05-10T04:44:57.006Z,23.34
2023-05-10T04:47:24.135Z,23.32
2023-05-10T04:49:51.364Z,23.34
2023-05-10T04:52:18.554Z,23.22
2023-05-10T04:54:45.663Z,23.31
2023-05-10T04:57:14.467Z,23.24
2023-05-10T04:59:41.628Z,23.24
2023-05-10T05:02:09.230Z,23.27
2023-05-10T05:04:36.615Z,23.19
2023-05-10T05:07:03.726Z,23.13
2023-05-10T05:09:31.167Z,23.08
2023-05-10T05:11:58.496Z,23.30
2023-05-10T05:14:27.308Z,23.08
2023-05-10T05:16:54.611Z,22.93
2023-05-10T05:19:21.757Z,23.19
2023-05-10T05:21:48.948Z,23.27
2023-05-10T05:24:16.196Z,23.28
2023-05-10T05:26:43.454Z,22.93
2023-05-10T05:29:10.971Z,22.69
2023-05-10T05:31:40.015Z,22.67
2023-05-10T05:34:07.575Z,22.90
2023-05-10T05:36:37.702Z,23.14
2023-05-10T05:39:05.804Z,22.84
2023-05-10T05:41:33.593Z,22.78
2023-05-10T05:44:00.843Z,22.70
2023-05-10T05:46:28.889Z,22.92
2023-05-10T05:48:57.634Z,22.94
2023-05-10T05:51:24.830Z,22.87
2023-05-10T05:53:51.905Z,22.81
2023-05-10T05:56:19.023Z,22.84
2023-05-10T05:58:46.114Z,22.74
2023-05-10T06:01:13.239Z,22.79
2023-05-10T06:03:40.832Z,23.08
2023-05-10T06:06:09.631Z,23.35
2023-05-10T06:08:37.837Z,23.42
2023-05-10T06:11:06.193Z,23.40
2023-05-10T06:13:33.906Z,23.28
2023-05-10T06:16:01.867Z,23.04
2023-05-10T06:18:30.013Z,23.54
2023-05-10T06:20:57.105Z,23.45
2023-05-10T06:23:26.057Z,23.42
2023-05-10T06:25:53.147Z,23.23
2023-05-10T06:28:20.235Z,23.20
2023-05-10T06:30:47.300Z,23.19
2023-05-10T06:33:15.119Z,23.59
2023-05-10T06:35:42.171Z,23.58
2023-05-10T06:38:09.668Z,23.53
2023-05-10T06:40:42.213Z,23.26
2023-05-10T06:43:09.906Z,22.86
2023-05-10T06:45:37.073Z,23.39
2023-05-10T06:48:05.127Z,22.76
2023-05-10T06:50:32.971Z,23.03
2023-05-10T06:53:00.788Z,23.04
2023-05-10T06:55:28.522Z,23.15
2023-05-10T06:57:57.055Z,23.01
2023-05-10T07:00:24.188Z,23.23
2023-05-10T07:02:53.068Z,22.99
2023-05-10T07:05:23.448Z,23.45
2023-05-10T07:07:50.522Z,23.53
2023-05-10T07:10:17.726Z,23.61
2023-05-10T07:12:45.591Z,23.61
2023-05-10T07:15:16.150Z,23.70
2023-05-10T07:17:45.904Z,23.65
2023-05-10T07:20:14.062Z,23.29
2023-05-10T07:22:41.174Z,22.84
2023-05-10T07:25:08.694Z,22.69
2023-05-10T07:27:35.785Z,22.98
2023-05-10T07:30:03.524Z,22.85
2023-05-10T07:32:32.901Z,23.02
2023-05-10T07:35:00.196Z,22.84
2023-05-10T07:37:27.280Z,22.28
2023-05-10T07:39:54.329Z,22.20
2023-05-10T07:42:22.091Z,22.56
2023-05-10T07:44:49.123Z,22.56
2023-05-10T07:47:16.693Z,22.49
2023-05-10T07:49:45.762Z,22.44
2023-05-10T07:52:12.831Z,22.94
2023-05-10T07:54:41.170Z,22.84
2023-05-10T07:57:09.120Z,22.85
2023-05-10T07:59:36.221Z,23.17
2023-05-10T08:02:03.441Z,22.68
2023-05-10T08:04:30.610Z,22.21
2023-05-10T08:06:59.172Z,22.45
2023-05-10T08:09:26.296Z,22.49
2023-05-10T08:11:53.579Z,22.85
2023-05-10T08:14:20.743Z,22.71
2023-05-10T08:16:48.181Z,22.84
2023-05-10T08:19:15.785Z,22.68
2023-05-10T08:21:43.167Z,22.77
2023-05-10T08:24:11.779Z,23.05
2023-05-10T08:26:39.840Z,22.06
2023-05-10T08:29:07.392Z,21.97
2023-05-10T08:31:35.130Z,21.80
2023-05-10T08:34:02.382Z,22.52
2023-05-10T08:36:29.625Z,22.54
2023-05-10T08:38:57.187Z,22.75
2023-05-10T08:41:25.817Z,22.90
2023-05-10T08:43:53.218Z,22.59
2023-05-10T08:46:21.422Z,22.83
2023-05-10T08:48:49.368Z,22.76
2023-05-10T08:51:19.359Z,22.86
2023-05-10T08:53:47.536Z,22.52
2023-05-10T08:56:14.925Z,22.56
2023-05-10T08:58:44.331Z,22.47
2023-05-10T09:01:12.392Z,22.39
2023-05-10T09:03:40.598Z,21.98
2023-05-10T09:06:07.865Z,22.26
2023-05-10T09:08:35.508Z,23.21
2023-05-10T09:11:02.833Z,22.80
2023-05-10T09:13:30.690Z,22.30
2023-05-10T09:16:04.418Z,22.09
2023-05-10T09:18:37.219Z,22.66
2023-05-10T09:21:04.666Z,22.54
2023-05-10T09:23:31.931Z,22.44
2023-05-10T09:26:05.695Z,22.59
2023-05-10T09:28:33.592Z,22.24
2023-05-10T09:31:02.264Z,22.18
2023-05-10T09:33:29.385Z,22.12
2023-05-10T09:35:56.544Z,22.23
2023-05-10T09:38:23.823Z,22.23
2023-05-10T09:40:54.087Z,22.78
2023-05-10T09:43:21.710Z,23.08
2023-05-10T09:45:49.813Z,22.55
2023-05-10T09:48:18.935Z,22.28
2023-05-10T09:50:45.982Z,22.05
2023-05-10T09:53:15.503Z,22.17
2023-05-10T09:55:43.424Z,22.51
2023-05-10T09:58:10.554Z,22.54
2023-05-10T10:00:39.074Z,22.71
2023-05-10T10:03:06.546Z,22.46
2023-05-10T10:05:36.451Z,22.67
2023-05-10T10:08:04.954Z,22.46
2023-05-10T10:10:33.389Z,22.26
2023-05-10T10:13:01.175Z,22.57
2023-05-10T10:15:29.145Z,22.68
2023-05-10T10:17:56.517Z,22.32
2023-05-10T10:20:24.323Z,22.22
2023-05-10T10:22:52.947Z,22.25
2023-05-10T10:25:21.332Z,22.41
2023-05-10T10:27:55.780Z,22.55
2023-05-10T10:30:27.294Z,22.57
2023-05-10T10:33:16.600Z,22.42
2023-05-10T10:35:55.180Z,22.44
2023-05-10T10:38:24.507Z,22.31
2023-05-10T10:41:03.592Z,22.41
2023-05-10T10:43:31.839Z,22.54
2023-05-10T10:46:12.781Z,22.39
2023-05-10T10:48:40.545Z,22.47
2023-05-10T10:51:07.663Z,22.41
2023-05-10T10:53:38.724Z,22.77
2023-05-10T10:56:08.221Z,22.22
2023-05-10T10:58:36.393Z,22.17
2023-05-10T11:01:16.048Z,22.37
2023-05-10T11:04:16.025Z,22.09
2023-05-10T11:06:44.229Z,22.53
2023-05-10T11:09:14.333Z,22.38
2023-05-10T11:11:53.063Z,22.03
2023-05-10T11:14:22.127Z,22.32
2023-05-10T11:16:49.950Z,22.20
2023-05-10T11:19:18.347Z,22.53
2023-05-10T11:21:47.818Z,22.25
2023-05-10T11:24:18.191Z,22.20
2023-05-10T11:26:46.428Z,22.15
2023-05-10T11:29:15.310Z,21.75
2023-05-10T11:31:44.369Z,22.16
2023-05-10T11:34:11.960Z,22.06
2023-05-10T11:36:40.890Z,22.28
2023-05-10T11:39:08.341Z,22.40
2023-05-10T11:41:38.436Z,22.23
2023-05-10T11:44:05.828Z,21.97
2023-05-10T11:46:34.003Z,21.95
2023-05-10T11:49:03.133Z,22.28
2023-05-10T11:51:31.142Z,22.36
2023-05-10T11:53:58.909Z,22.42
2023-05-10T11:56:26.468Z,22.73
2023-05-10T11:58:56.673Z,22.75
2023-05-10T12:01:24.687Z,22.04
2023-05-10T12:03:53.001Z,22.29
2023-05-10T12:06:21.642Z,22.41
2023-05-10T12:08:50.477Z,22.46
2023-05-10T12:11:17.515Z,22.59
2023-05-10T12:13:45.814Z,22.63
2023-05-10T12:16:18.995Z,22.96
2023-05-10T12:18:49.184Z,22.83
2023-05-10T12:21:17.242Z,22.47
2023-05-10T12:23:46.770Z,22.43
2023-05-10T12:26:15.985Z,22.72
2023-05-10T12:28:43.129Z,22.49
2023-05-10T12:31:10.812Z,22.56
2023-05-10T12:33:41.768Z,22.95
2023-05-10T12:36:10.278Z,22.81
2023-05-10T12:38:38.681Z,22.90
2023-05-10T12:41:07.157Z,23.00
2023-05-10T12:43:35.362Z,22.90
2023-05-10T12:46:07.078Z,22.91
2023-05-10T12:48:34.467Z,22.99
2023-05-10T12:51:04.833Z,22.76
2023-05-10T12:53:32.446Z,22.91
2023-05-10T12:56:00.235Z,22.72
2023-05-10T12:58:35.468Z,22.86
2023-05-10T13:01:04.578Z,22.97
2023-05-10T13:03:32.310Z,22.68
2023-05-10T13:05:59.925Z,23.18
2023-05-10T13:08:29.270Z,23.05
2023-05-10T13:10:56.994Z,23.05
2023-05-10T13:13:24.053Z,22.93
2023-05-10T13:15:51.176Z,22.80
2023-05-10T13:18:18.583Z,22.83
2023-05-10T13:20:45.826Z,22.63
2023-05-10T13:23:13.929Z,22.44
2023-05-10T13:25:42.974Z,22.39
2023-05-10T13:28:10.425Z,22.40
2023-05-10T13:30:37.874Z,22.73
2023-05-10T13:33:05.035Z,23.22
2023-05-10T13:35:32.210Z,23.47
2023-05-10T13:37:59.350Z,23.57
2023-05-10T13:40:30.142Z,23.72
2023-05-10T13:42:58.663Z,23.74
2023-05-10T13:45:25.822Z,23.75
2023-05-10T13:47:53.433Z,23.87
2023-05-10T13:50:20.720Z,23.92
2023-05-10T13:52:48.649Z,23.87
2023-05-10T13:55:17.528Z,23.92
2023-05-10T13:57:45.839Z,24.03
2023-05-10T14:00:14.931Z,24.07
2023-05-10T14:02:43.084Z,24.02
2023-05-10T14:05:10.326Z,24.07
2023-05-10T14:07:37.394Z,24.07
2023-05-10T14:10:05.249Z,24.07
2023-05-10T14:12:33.069Z,24.13
2023-05-10T14:15:00.773Z,24.08
2023-05-10T14:17:29.382Z,24.18
2023-05-10T14:19:56.642Z,24.24
2023-05-10T14:22:24.490Z,24.22
2023-05-10T14:24:51.762Z,24.27
2023-05-10T14:27:19.080Z,24.18
2023-05-10T14:29:46.353Z,24.33
2023-05-10T14:32:13.947Z,24.30
2023-05-10T14:34:42.839Z,24.36
2023-05-10T14:37:11.504Z,24.27
2023-05-10T14:39:38.874Z,24.33
2023-05-10T14:42:06.016Z,24.27
2023-05-10T14:44:33.189Z,24.27
2023-05-10T14:47:00.352Z,24.33
2023-05-10T14:49:27.432Z,24.35
2023-05-10T14:51:56.069Z,24.31
2023-05-10T14:54:23.165Z,24.33
2023-05-10T14:56:50.780Z,24.32
2023-05-10T14:59:19.278Z,24.45
2023-05-10T15:01:47.128Z,24.37
2023-05-10T15:04:15.656Z,24.33
2023-05-10T15:06:43.311Z,24.39
2023-05-10T15:09:11.810Z,24.33
2023-05-10T15:11:40.181Z,24.27
2023-05-10T15:14:07.335Z,24.34
2023-05-10T15:16:36.304Z,24.29
2023-05-10T15:19:04.784Z,24.37
2023-05-10T15:21:32.029Z,24.36
2023-05-10T15:23:59.619Z,24.32
2023-05-10T15:26:28.132Z,24.27
2023-05-10T15:28:55.761Z,24.52
2023-05-10T15:31:24.483Z,24.40
2023-05-10T15:33:53.799Z,24.36
2023-05-10T15:36:22.163Z,24.31
2023-05-10T15:38:49.750Z,24.36
2023-05-10T15:41:17.227Z,24.34
2023-05-10T15:43:46.371Z,24.35
2023-05-10T15:46:13.503Z,24.35
2023-05-10T15:48:40.619Z,24.34
2023-05-10T15:51:08.324Z,24.34
2023-05-10T15:53:35.819Z,24.34
2023-05-10T15:56:03.522Z,24.38
2023-05-10T15:58:31.704Z,24.45
2023-05-10T16:01:00.868Z,24.37
2023-05-10T16:03:28.566Z,24.35
2023-05-10T16:05:55.837Z,24.33
2023-05-10T16:08:23.108Z,24.33
2023-05-10T16:10:51.246Z,24.38
2023-05-10T16:13:18.401Z,24.33
2023-05-10T16:15:46.595Z,24.39
2023-05-10T16:18:15.809Z,24.28
2023-05-10T16:20:42.881Z,24.32
2023-05-10T16:23:10.236Z,24.43
2023-05-10T16:25:37.581Z,24.37
2023-05-10T16:28:05.016Z,24.36
2023-05-10T16:30:32.340Z,24.32
2023-05-10T16:33:00.525Z,24.35
2023-05-10T16:35:30.274Z,24.36
2023-05-10T16:37:57.830Z,24.37
2023-05-10T16:40:25.290Z,24.33
2023-05-10T16:42:52.976Z,24.31
2023-05-10T16:45:20.470Z,24.32
2023-05-10T16:47:48.314Z,24.35
2023-05-10T16:50:15.952Z,24.32
2023-05-10T16:52:45.683Z,24.31
2023-05-10T16:55:12.804Z,24.27
2023-05-10T16:57:40.677Z,24.29
2023-05-10T17:00:08.899Z,24.37
2023-05-10T17:02:36.553Z,24.30
2023-05-10T17:05:04.595Z,24.29
2023-05-10T17:07:32.840Z,24.25
2023-05-10T17:10:02.778Z,24.28
2023-05-10T17:12:30.343Z,24.29
2023-05-10T17:14:57.894Z,24.28
2023-05-10T17:17:26.274Z,24.24
2023-05-10T17:19:53.908Z,24.22
2023-05-10T17:22:22.156Z,24.24
2023-05-10T17:24:50.326Z,24.28
2023-05-10T17:27:19.504Z,24.24
2023-05-10T17:29:47.713Z,24.19
2023-05-10T17:32:15.418Z,24.27
2023-05-10T17:34:42.905Z,24.24
2023-05-10T17:37:10.651Z,24.25
2023-05-10T17:39:39.926Z,24.24
2023-05-10T17:42:07.732Z,24.26
2023-05-10T17:44:37.398Z,24.21
2023-05-10T17:47:04.929Z,24.28
2023-05-10T17:49:33.559Z,24.28
2023-05-10T17:52:01.141Z,24.22
2023-05-10T17:54:29.251Z,24.22
2023-05-10T17:56:57.394Z,24.23
2023-05-10T17:59:25.537Z,24.28
2023-05-10T18:01:55.337Z,24.19
2023-05-10T18:04:23.446Z,24.25
2023-05-10T18:06:51.223Z,24.25
2023-05-10T18:09:18.953Z,24.19
2023-05-10T18:11:46.058Z,24.23
2023-05-10T18:14:14.617Z,24.21
2023-05-10T18:16:43.788Z,24.24
2023-05-10T18:19:13.623Z,24.24
2023-05-10T18:21:41.777Z,24.26
2023-05-10T18:24:09.887Z,24.21
2023-05-10T18:26:38.092Z,24.19
2023-05-10T18:29:06.857Z,24.16
2023-05-10T18:31:34.090Z,24.15
2023-05-10T18:34:03.013Z,24.08
2023-05-10T18:36:32.381Z,24.11
2023-05-10T18:39:00.512Z,24.07
2023-05-10T18:41:28.345Z,24.05
2023-05-10T18:43:56.434Z,24.03
2023-05-10T18:46:23.606Z,24.00
2023-05-10T18:48:51.963Z,24.01
2023-05-10T18:51:19.562Z,23.93
2023-05-10T18:53:48.112Z,23.92
2023-05-10T18:56:16.207Z,23.86
2023-05-10T18:58:43.555Z,23.90
2023-05-10T19:01:11.503Z,23.92
2023-05-10T19:03:39.725Z,23.89
2023-05-10T19:06:07.399Z,23.84
2023-05-10T19:08:34.464Z,23.87
2023-05-10T19:11:04.131Z,23.89
2023-05-10T19:13:31.184Z,23.93
2023-05-10T19:16:03.077Z,23.94
2023-05-10T19:18:33.034Z,23.95
2023-05-10T19:21:00.835Z,23.90
2023-05-10T19:23:28.416Z,23.95
2023-05-10T19:25:56.063Z,23.89
2023-05-10T19:28:25.692Z,23.88
2023-05-10T19:30:54.624Z,23.89
2023-05-10T19:33:22.880Z,23.87
2023-05-10T19:35:50.441Z,23.87
2023-05-10T19:38:21.548Z,23.86
2023-05-10T19:40:49.833Z,23.86
2023-05-10T19:43:17.930Z,23.86
2023-05-10T19:45:47.218Z,23.86
2023-05-10T19:48:16.215Z,23.86
2023-05-10T19:50:43.244Z,23.85
2023-05-10T19:53:11.046Z,23.82
2023-05-10T19:55:39.130Z,23.75
2023-05-10T19:58:06.787Z,23.77
2023-05-10T20:00:35.116Z,23.75
2023-05-10T20:03:05.910Z,23.76
2023-05-10T20:05:35.311Z,23.76
2023-05-10T20:08:03.019Z,23.71
2023-05-10T20:10:30.503Z,23.72
2023-05-10T20:12:58.240Z,23.69
2023-05-10T20:15:26.178Z,23.68
2023-05-10T20:17:53.805Z,23.63
2023-05-10T20:20:23.185Z,23.65
2023-05-10T20:22:51.463Z,23.80
2023-05-10T20:25:19.139Z,23.82
2023-05-10T20:27:46.598Z,23.98
2023-05-10T20:30:14.583Z,24.10
2023-05-10T20:32:42.060Z,24.19
2023-05-10T20:35:10.257Z,24.20
2023-05-10T20:37:39.480Z,24.22
2023-05-10T20:40:08.030Z,24.29
2023-05-10T20:42:35.485Z,24.29
2023-05-10T20:45:02.812Z,24.35
2023-05-10T20:47:30.288Z,24.36
2023-05-10T20:49:58.060Z,24.36
2023-05-10T20:52:25.897Z,24.38
2023-05-10T20:54:55.160Z,24.42
2023-05-10T20:57:22.274Z,24.45
2023-05-10T20:59:49.904Z,24.42
2023-05-10T21:02:17.579Z,24.45
2023-05-10T21:04:44.649Z,24.46
2023-05-10T21:07:11.824Z,24.43
2023-05-10T21:09:39.369Z,24.47
2023-05-10T21:12:09.975Z,24.47
2023-05-10T21:14:37.964Z,24.50
2023-05-10T21:17:05.533Z,24.48
2023-05-10T21:19:33.066Z,24.48
2023-05-10T21:22:00.777Z,24.53
2023-05-10T21:24:28.178Z,24.55
2023-05-10T21:26:55.591Z,24.52
2023-05-10T21:29:24.125Z,24.54
2023-05-10T21:31:51.697Z,24.59
2023-05-10T21:34:19.341Z,24.59
2023-05-10T21:36:46.771Z,24.54
2023-05-10T21:39:13.840Z,24.56
2023-05-10T21:41:41.357Z,24.59
2023-05-10T21:44:08.905Z,24.60
2023-05-10T21:46:37.547Z,24.61
2023-05-10T21:49:05.014Z,24.59
2023-05-10T21:51:32.403Z,24.62
2023-05-10T21:54:00.185Z,24.64
2023-05-10T21:56:28.101Z,24.59
2023-05-10T21:58:55.303Z,24.55
2023-05-10T22:01:22.659Z,24.57
2023-05-10T22:03:51.559Z,24.57
2023-05-10T22:06:18.905Z,24.57
2023-05-10T22:08:46.612Z,24.65
2023-05-10T22:11:13.792Z,24.59
2023-05-10T22:13:40.874Z,24.57
2023-05-10T22:16:08.941Z,24.52
2023-05-10T22:18:37.255Z,24.57
2023-05-10T22:21:09.350Z,24.56
2023-05-10T22:23:37.212Z,24.56
2023-05-10T22:26:05.013Z,24.56
2023-05-10T22:28:32.270Z,24.56
2023-05-10T22:31:00.085Z,24.52
2023-05-10T22:33:28.500Z,24.61
2023-05-10T22:35:56.144Z,24.55
2023-05-10T22:38:25.282Z,24.61
2023-05-10T22:40:52.572Z,24.57
2023-05-10T22:43:20.160Z,24.53
2023-05-10T22:45:48.157Z,24.59
2023-05-10T22:48:15.565Z,24.57
2023-05-10T22:50:43.311Z,24.64
2023-05-10T22:53:11.058Z,24.60
2023-05-10T22:55:40.158Z,24.62
2023-05-10T22:58:08.020Z,24.60
2023-05-10T23:00:35.336Z,24.57
2023-05-10T23:03:02.694Z,24.64
2023-05-10T23:05:29.920Z,24.56
2023-05-10T23:07:57.015Z,24.61
2023-05-10T23:10:24.761Z,24.61
2023-05-10T23:12:53.264Z,24.59
2023-05-10T23:15:20.720Z,24.62
2023-05-10T23:17:47.997Z,24.56
2023-05-10T23:20:15.251Z,24.60
2023-05-10T23:22:45.240Z,24.61
2023-05-10T23:25:12.400Z,24.59
2023-05-10T23:27:39.523Z,24.58
2023-05-10T23:30:09.007Z,24.56
2023-05-10T23:32:36.376Z,24.59
2023-05-10T23:35:03.734Z,24.61
2023-05-10T23:37:30.944Z,24.64
2023-05-10T23:39:58.145Z,24.61
2023-05-10T23:42:25.367Z,24.67
2023-05-10T23:44:53.268Z,24.65
2023-05-10T23:47:21.831Z,24.67
2023-05-10T23:49:50.059Z,24.68
2023-05-10T23:52:17.315Z,24.68
2023-05-10T23:54:45.867Z,24.67
2023-05-10T23:57:13.090Z,24.67
2023-05-10T23:59:40.211Z,24.67
